AUY weather

Aneityum Airport
Anatom Island, Tafea, Vanuatu

Public forecast

Using degrees Celsius for public forecast. Weather courtesy of forecast.io.

Current aviation weather report (METAR) for Aneityum Airport

Report is more than 2 hours old.

Retrieved 2020/01/26 21:00 UTC (2 hours ago):

NVVA 262100Z 12006KT 9999 FEW020 SCT300 28/23 Q1010

Aviation forecast (TAF) for Aneityum Airport

Retrieved 2020/01/26 18:03 UTC (5 hours ago):

TAF NVVA 261600Z 2618/2718 12006KT 9999 SCT020 PROB30 INTER 2618/2624 9000 -SHRA BKN018